Hayden, New Mexico
Current Conditions -  °F | °C
As of 12:53 AM on Sunday 26 Oct 2014 (Local Time) from KDHT Reporting Station
Clear Clear  
Wind Chill: 55°   Ceiling: Unl
Heat Index: 55°   Visibility: 10mi
Dew Point: 41°   Wind: 8mph
Humidity: 59%   Direction: 210°SSW
Pressure: 30.01"   Gusts: NA
Location:  35.8947°N, 103.215°W
Report Text: KDHT 260653Z AUTO 21007KT 10SM CLR 13/05 A3001 RMK AO2 SLP110 T01280050
Loading
Personal Weather Stations






























Interactive Weather Map
Tropical Storm Tracking
New forecast layout! Learn more

10-Day Weather Forecast

Advertisements
Track Severe Weather on mobile